createdAt,value
2022-11-26T00:01:40.438Z,6.91
2022-11-26T00:16:42.643Z,6.97
2022-11-26T00:31:44.313Z,6.91
2022-11-26T00:46:46.269Z,7.03
2022-11-26T01:01:48.250Z,7.09
2022-11-26T01:16:49.973Z,7.06
2022-11-26T01:31:51.643Z,7.10
2022-11-26T01:46:52.617Z,6.98
2022-11-26T02:01:54.901Z,7.02
2022-11-26T02:16:56.157Z,7.21
2022-11-26T02:31:57.968Z,7.30
2022-11-26T02:46:59.869Z,7.28
2022-11-26T03:02:01.798Z,7.45
2022-11-26T03:17:02.389Z,7.42
2022-11-26T03:32:04.924Z,7.55
2022-11-26T03:47:05.875Z,7.53
2022-11-26T04:02:08.249Z,7.61
2022-11-26T04:17:11.151Z,7.64
2022-11-26T04:32:14.083Z,7.69
2022-11-26T04:47:17.570Z,7.79
2022-11-26T05:02:20.261Z,7.77
2022-11-26T05:17:22.553Z,7.79
2022-11-26T05:32:23.633Z,7.77
2022-11-26T05:47:25.612Z,7.83
2022-11-26T06:02:26.834Z,7.63
2022-11-26T06:17:29.603Z,7.82
2022-11-26T06:32:29.847Z,7.86
2022-11-26T06:47:30.097Z,7.85
2022-11-26T07:02:30.078Z,7.87
2022-11-26T07:17:31.782Z,7.82
2022-11-26T07:32:34.055Z,7.87
2022-11-26T07:47:33.737Z,7.90
2022-11-26T08:02:35.710Z,7.97
2022-11-26T08:17:38.224Z,8.07
2022-11-26T08:32:39.115Z,8.07
2022-11-26T08:47:39.809Z,8.12
2022-11-26T09:02:40.991Z,8.23
2022-11-26T09:17:42.122Z,8.20
2022-11-26T09:32:42.230Z,8.34
2022-11-26T09:47:44.740Z,8.26
2022-11-26T10:02:46.365Z,8.20
2022-11-26T10:17:47.565Z,8.11
2022-11-26T10:32:48.161Z,8.08
2022-11-26T10:47:51.857Z,8.11
2022-11-26T11:02:52.791Z,7.92
2022-11-26T11:17:53.229Z,8.16
2022-11-26T11:32:54.552Z,8.19
2022-11-26T11:47:56.473Z,8.28
2022-11-26T12:02:56.543Z,8.30
2022-11-26T12:17:58.501Z,8.30
2022-11-26T12:32:59.666Z,8.29
2022-11-26T12:48:00.190Z,8.36
2022-11-26T13:03:00.805Z,8.28
2022-11-26T13:18:02.631Z,8.18
2022-11-26T13:33:03.433Z,8.15
2022-11-26T13:48:04.732Z,8.16
2022-11-26T14:03:04.836Z,8.18
2022-11-26T14:18:06.716Z,8.10
2022-11-26T14:33:07.672Z,7.98
2022-11-26T14:48:09.514Z,8.00
2022-11-26T15:03:10.755Z,8.00
2022-11-26T15:18:11.728Z,7.86
2022-11-26T15:33:13.612Z,7.71
2022-11-26T15:48:13.905Z,7.74
2022-11-26T16:03:24.101Z,7.61
2022-11-26T16:18:25.847Z,7.50
2022-11-26T16:33:26.440Z,7.49
2022-11-26T16:48:27.855Z,7.40
2022-11-26T17:03:29.084Z,7.48
2022-11-26T17:18:29.901Z,7.39
2022-11-26T17:33:32.026Z,7.48
2022-11-26T17:48:33.937Z,7.53
2022-11-26T18:03:34.918Z,7.49
2022-11-26T18:18:36.693Z,7.52
2022-11-26T18:33:39.130Z,7.40
2022-11-26T18:48:40.404Z,7.32
2022-11-26T19:03:44.000Z,7.39
2022-11-26T19:18:45.471Z,7.37
2022-11-26T19:33:45.496Z,7.42
2022-11-26T19:48:47.309Z,7.37
2022-11-26T20:03:49.419Z,7.43
2022-11-26T20:18:51.960Z,7.43
2022-11-26T20:33:53.884Z,7.43
2022-11-26T20:48:55.495Z,7.40
2022-11-26T21:03:56.735Z,7.34
2022-11-26T21:18:58.110Z,7.42
2022-11-26T21:33:59.372Z,7.40
2022-11-26T21:49:00.944Z,7.45
2022-11-26T22:04:02.294Z,7.40
2022-11-26T22:19:04.787Z,7.34
2022-11-26T22:34:06.811Z,7.30
2022-11-26T22:49:07.194Z,7.31
2022-11-26T23:04:08.537Z,7.15
2022-11-26T23:19:11.394Z,7.03
2022-11-26T23:34:12.365Z,6.88
2022-11-26T23:49:13.724Z,6.73
